createdAt,value
2023-04-15T00:01:43.834Z,100879.75
2023-04-15T00:04:13.721Z,100886.00
2023-04-15T00:06:43.641Z,100885.42
2023-04-15T00:09:14.031Z,100882.81
2023-04-15T00:11:43.849Z,100881.28
2023-04-15T00:14:14.434Z,100879.08
2023-04-15T00:16:44.377Z,100877.55
2023-04-15T00:19:14.323Z,100877.09
2023-04-15T00:21:43.930Z,100871.06
2023-04-15T00:24:13.570Z,100876.05
2023-04-15T00:26:43.703Z,100883.36
2023-04-15T00:29:13.614Z,100884.02
2023-04-15T00:31:43.499Z,100876.89
2023-04-15T00:34:13.956Z,100886.89
2023-04-15T00:36:45.780Z,100878.16
2023-04-15T00:39:17.378Z,100879.06
2023-04-15T00:41:47.742Z,100886.48
2023-04-15T00:44:18.858Z,100875.16
2023-04-15T00:46:51.750Z,100873.10
2023-04-15T00:49:21.955Z,100875.10
2023-04-15T00:51:52.374Z,100875.33
2023-04-15T00:54:23.254Z,100878.38
2023-04-15T00:56:53.141Z,100879.36
2023-04-15T00:59:23.101Z,100876.03
2023-04-15T01:01:53.150Z,100878.88
2023-04-15T01:04:23.181Z,100882.19
2023-04-15T01:06:53.069Z,100883.25
2023-04-15T01:09:22.965Z,100882.86
2023-04-15T01:11:53.771Z,100880.20
2023-04-15T01:14:23.276Z,100884.55
2023-04-15T01:16:54.736Z,100886.66
2023-04-15T01:19:24.527Z,100886.61
2023-04-15T01:21:54.991Z,100883.58
2023-04-15T01:24:27.209Z,100887.39
2023-04-15T01:26:57.025Z,100889.39
2023-04-15T01:29:27.488Z,100886.07
2023-04-15T01:31:58.126Z,100888.59
2023-04-15T01:34:29.440Z,100884.26
2023-04-15T01:36:59.539Z,100888.55
2023-04-15T01:39:29.453Z,100891.63
2023-04-15T01:41:59.265Z,100891.17
2023-04-15T01:44:29.058Z,100887.81
2023-04-15T01:46:59.033Z,100884.73
2023-04-15T01:49:29.123Z,100895.69
2023-04-15T01:51:58.997Z,100889.40
2023-04-15T01:54:28.488Z,100894.66
2023-04-15T01:56:58.797Z,100883.27
2023-04-15T01:59:28.587Z,100883.27
2023-04-15T02:01:58.838Z,100887.75
2023-04-15T02:04:29.474Z,100898.83
2023-04-15T02:07:01.724Z,100898.83
2023-04-15T02:12:02.065Z,100893.52
2023-04-15T02:14:32.232Z,100889.67
2023-04-15T02:17:03.726Z,100890.09
2023-04-15T02:19:34.067Z,100894.30
2023-04-15T02:22:08.469Z,100894.37
2023-04-15T02:24:38.558Z,100901.16
2023-04-15T02:27:08.461Z,100895.79
2023-04-15T02:29:38.312Z,100899.41
2023-04-15T02:32:11.983Z,100896.77
2023-04-15T02:34:42.869Z,100899.80
2023-04-15T02:37:14.275Z,100900.90
2023-04-15T02:39:44.082Z,100910.34
2023-04-15T02:42:14.032Z,100907.69
2023-04-15T02:44:44.418Z,100912.27
2023-04-15T02:50:40.510Z,100909.88
2023-04-15T02:53:11.256Z,100922.25
2023-04-15T02:55:42.765Z,100933.79
2023-04-15T02:58:13.171Z,100920.91
2023-04-15T03:00:42.986Z,100937.38
2023-04-15T03:03:15.199Z,100937.38
2023-04-15T03:05:45.871Z,100934.22
2023-04-15T03:08:15.877Z,100934.22
2023-04-15T03:10:45.713Z,100938.79
2023-04-15T03:13:15.945Z,100938.32
2023-04-15T03:15:48.407Z,100937.02
2023-04-15T03:18:18.115Z,100940.28
2023-04-15T03:20:48.171Z,100942.06
2023-04-15T03:23:18.206Z,100945.63
2023-04-15T03:25:48.222Z,100943.81
2023-04-15T03:28:18.049Z,100953.95
2023-04-15T03:30:48.175Z,100955.11
2023-04-15T03:33:18.081Z,100947.82
2023-04-15T03:35:47.979Z,100952.88
2023-04-15T03:38:17.920Z,100953.63
2023-04-15T03:40:48.546Z,100953.63
2023-04-15T03:43:18.504Z,100959.79
2023-04-15T03:45:48.296Z,100963.02
2023-04-15T03:48:18.522Z,100958.55
2023-04-15T03:50:48.456Z,100963.07
2023-04-15T03:53:18.597Z,100967.73
2023-04-15T03:55:48.486Z,100967.98
2023-04-15T03:58:18.778Z,100972.64
2023-04-15T04:00:48.616Z,100980.92
2023-04-15T04:03:19.057Z,100980.45
2023-04-15T04:05:49.328Z,100978.34
2023-04-15T04:08:19.689Z,100983.89
2023-04-15T04:10:49.561Z,100982.33
2023-04-15T04:13:19.712Z,100985.55
2023-04-15T04:15:49.584Z,100987.56
2023-04-15T04:18:19.106Z,100998.86
2023-04-15T04:20:49.053Z,100993.42
2023-04-15T04:23:19.026Z,101005.47
2023-04-15T04:25:48.926Z,101001.62
2023-04-15T04:28:18.811Z,101001.62
2023-04-15T04:30:48.617Z,101009.02
2023-04-15T04:33:18.732Z,101008.73
2023-04-15T04:35:48.536Z,101015.47
2023-04-15T04:38:18.057Z,101016.09
2023-04-15T04:40:48.277Z,101017.73
2023-04-15T04:43:18.241Z,101020.85
2023-04-15T04:45:47.910Z,101029.89
2023-04-15T04:48:18.242Z,101025.72
2023-04-15T04:50:48.066Z,101036.44
2023-04-15T04:53:18.298Z,101046.07
2023-04-15T04:55:48.253Z,101048.70
2023-04-15T04:58:17.782Z,101048.31
2023-04-15T05:00:47.810Z,101039.77
2023-04-15T05:03:17.851Z,101051.59
2023-04-15T05:05:49.258Z,101051.92
2023-04-15T05:08:19.022Z,101057.30
2023-04-15T05:10:49.263Z,101064.37
2023-04-15T05:13:19.352Z,101066.28
2023-04-15T05:15:49.492Z,101068.53
2023-04-15T05:18:19.330Z,101077.28
2023-04-15T05:20:50.164Z,101073.25
2023-04-15T05:23:20.067Z,101082.02
2023-04-15T05:25:50.212Z,101082.02
2023-04-15T05:28:20.183Z,101092.39
2023-04-15T05:30:50.178Z,101095.40
2023-04-15T05:33:20.084Z,101099.75
2023-04-15T05:35:50.458Z,101098.21
2023-04-15T05:38:20.145Z,101101.30
2023-04-15T05:40:50.295Z,101109.11
2023-04-15T05:43:20.707Z,101112.63
2023-04-15T05:45:50.602Z,101113.89
2023-04-15T05:48:20.330Z,101114.36
2023-04-15T05:50:50.144Z,101109.91
2023-04-15T05:53:20.177Z,101119.41
2023-04-15T05:55:50.337Z,101124.61
2023-04-15T05:58:20.075Z,101124.61
2023-04-15T06:00:50.008Z,101123.15
2023-04-15T06:03:20.061Z,101132.52
2023-04-15T06:05:49.920Z,101136.31
2023-04-15T06:08:19.734Z,101156.02
2023-04-15T06:10:49.669Z,101156.02
2023-04-15T06:13:19.237Z,101148.42
2023-04-15T06:15:49.512Z,101150.81
2023-04-15T06:18:20.129Z,101151.20
2023-04-15T06:20:50.131Z,101162.52
2023-04-15T06:23:20.038Z,101167.31
2023-04-15T06:25:49.869Z,101173.06
2023-04-15T06:28:19.428Z,101178.25
2023-04-15T06:30:49.349Z,101173.79
2023-04-15T06:33:19.155Z,101184.45
2023-04-15T06:35:49.694Z,101192.72
2023-04-15T06:38:19.251Z,101195.64
2023-04-15T06:40:49.394Z,101193.92
2023-04-15T06:43:19.687Z,101196.91
2023-04-15T06:45:49.512Z,101205.52
2023-04-15T06:48:19.285Z,101203.30
2023-04-15T06:50:50.145Z,101211.00
2023-04-15T06:53:20.569Z,101211.12
2023-04-15T06:55:50.969Z,101220.04
2023-04-15T06:58:21.118Z,101213.95
2023-04-15T07:00:52.121Z,101222.57
2023-04-15T07:03:22.410Z,101225.02
2023-04-15T07:05:52.709Z,101226.88
2023-04-15T07:08:22.635Z,101237.20
2023-04-15T07:10:52.471Z,101236.72
2023-04-15T07:13:22.399Z,101240.94
2023-04-15T07:15:52.209Z,101244.38
2023-04-15T07:18:22.205Z,101249.51
2023-04-15T07:20:52.694Z,101258.07
2023-04-15T07:23:22.574Z,101258.07
2023-04-15T07:25:52.370Z,101260.69
2023-04-15T07:28:22.170Z,101258.73
2023-04-15T07:30:52.413Z,101261.98
2023-04-15T07:33:22.220Z,101273.98
2023-04-15T07:35:52.093Z,101273.13
2023-04-15T07:38:21.676Z,101274.64
2023-04-15T07:40:51.632Z,101282.36
2023-04-15T07:43:21.997Z,101283.59
2023-04-15T07:45:52.175Z,101289.47
2023-04-15T07:48:22.091Z,101292.69
2023-04-15T07:50:52.769Z,101296.50
2023-04-15T07:53:23.055Z,101292.90
2023-04-15T07:55:52.870Z,101303.17
2023-04-15T07:58:22.986Z,101299.69
2023-04-15T08:00:55.153Z,101304.02
2023-04-15T08:03:25.037Z,101308.64
2023-04-15T08:05:55.169Z,101308.64
2023-04-15T08:08:25.426Z,101308.26
2023-04-15T08:10:55.304Z,101313.67
2023-04-15T08:13:25.124Z,101311.22
2023-04-15T08:16:16.087Z,101312.00
2023-04-15T08:18:46.649Z,101312.00
2023-04-15T08:21:17.639Z,101319.50
2023-04-15T08:23:50.073Z,101317.81
2023-04-15T08:26:21.257Z,101322.03
2023-04-15T08:28:51.757Z,101322.03
2023-04-15T08:31:22.251Z,101321.44
2023-04-15T08:33:53.438Z,101312.08
2023-04-15T08:36:23.280Z,101312.08
2023-04-15T08:38:53.112Z,101335.25
2023-04-15T08:41:25.327Z,101337.67
2023-04-15T08:44:04.155Z,101338.80
2023-04-15T08:46:35.025Z,101335.94
2023-04-15T08:49:07.094Z,101344.57
2023-04-15T08:51:37.620Z,101344.97
2023-04-15T08:54:13.975Z,101347.46
2023-04-15T08:56:43.873Z,101357.36
2023-04-15T08:59:13.962Z,101361.55
2023-04-15T09:01:44.425Z,101365.56
2023-04-15T09:04:15.220Z,101370.67
2023-04-15T09:06:44.869Z,101375.57
2023-04-15T09:09:14.886Z,101371.80
2023-04-15T09:11:44.705Z,101378.43
2023-04-15T09:14:14.517Z,101376.05
2023-04-15T09:17:03.902Z,101381.61
2023-04-15T09:19:36.522Z,101392.56
2023-04-15T09:22:08.179Z,101392.78
2023-04-15T09:24:42.174Z,101396.08
2023-04-15T09:27:12.214Z,101395.27
2023-04-15T09:29:43.244Z,101406.95
2023-04-15T09:32:17.061Z,101409.59
2023-04-15T09:34:47.994Z,101411.12
2023-04-15T09:37:31.710Z,101415.45
2023-04-15T09:39:52.974Z,101409.80
2023-04-15T09:42:26.710Z,101411.06
2023-04-15T09:44:56.663Z,101412.91
2023-04-15T09:47:33.068Z,101411.73
2023-04-15T09:50:03.523Z,101417.92
2023-04-15T09:52:33.552Z,101413.54
2023-04-15T09:55:03.105Z,101422.38
2023-04-15T09:57:41.145Z,101426.70
2023-04-15T10:00:14.079Z,101424.48
2023-04-15T10:02:44.414Z,101423.10
2023-04-15T10:05:17.945Z,101421.86
2023-04-15T10:07:48.301Z,101430.09
2023-04-15T10:10:19.014Z,101442.16
2023-04-15T10:12:50.554Z,101442.16
2023-04-15T10:15:20.663Z,101442.28
2023-04-15T10:17:51.838Z,101439.77
2023-04-15T10:20:23.576Z,101437.66
2023-04-15T10:22:53.976Z,101443.39
2023-04-15T10:25:24.648Z,101445.45
2023-04-15T10:27:54.493Z,101448.41
2023-04-15T10:30:24.580Z,101438.75
2023-04-15T10:32:54.869Z,101441.94
2023-04-15T10:35:25.477Z,101429.32
2023-04-15T10:37:55.271Z,101446.50
2023-04-15T10:40:34.717Z,101449.17
2023-04-15T10:43:05.395Z,101453.68
2023-04-15T10:45:37.854Z,101452.45
2023-04-15T10:48:10.016Z,101451.33
2023-04-15T10:50:39.807Z,101451.06
2023-04-15T10:53:11.859Z,101449.74
2023-04-15T10:55:41.790Z,101459.67
2023-04-15T10:58:12.308Z,101461.28
2023-04-15T11:00:43.626Z,101460.80
2023-04-15T11:03:13.360Z,101464.59
2023-04-15T11:05:52.224Z,101450.77
2023-04-15T11:08:23.855Z,101458.03
2023-04-15T11:10:54.880Z,101448.55
2023-04-15T11:13:27.101Z,101448.55
2023-04-15T11:16:01.618Z,101459.92
2023-04-15T11:18:33.016Z,101463.42
2023-04-15T11:21:05.987Z,101460.52
2023-04-15T11:23:47.245Z,101471.55
2023-04-15T11:26:17.064Z,101471.16
2023-04-15T11:28:48.050Z,101478.06
2023-04-15T11:31:20.274Z,101468.08
2023-04-15T11:34:02.984Z,101470.70
2023-04-15T11:36:33.081Z,101474.65
2023-04-15T11:39:02.916Z,101473.49
2023-04-15T11:41:32.893Z,101476.11
2023-04-15T11:44:03.067Z,101478.85
2023-04-15T11:46:33.153Z,101479.80
2023-04-15T11:49:04.742Z,101478.50
2023-04-15T11:51:35.465Z,101486.29
2023-04-15T11:54:06.552Z,101483.16
2023-04-15T11:56:36.521Z,101484.20
2023-04-15T11:59:06.045Z,101488.99
2023-04-15T12:01:41.278Z,101490.31
2023-04-15T12:04:15.952Z,101486.69
2023-04-15T12:06:46.867Z,101491.28
2023-04-15T12:09:17.532Z,101486.33
2023-04-15T12:11:54.107Z,101487.16
2023-04-15T12:14:26.735Z,101495.95
2023-04-15T12:17:00.218Z,101492.67
2023-04-15T12:19:39.084Z,101495.34
2023-04-15T12:22:13.242Z,101501.41
2023-04-15T12:24:44.338Z,101487.59
2023-04-15T12:27:16.252Z,101487.59
2023-04-15T12:29:46.140Z,101505.20
2023-04-15T12:32:17.612Z,101507.45
2023-04-15T12:34:52.650Z,101516.07
2023-04-15T12:37:23.002Z,101521.77
2023-04-15T12:39:53.965Z,101522.63
2023-04-15T12:42:24.066Z,101520.97
2023-04-15T12:44:54.076Z,101524.96
2023-04-15T12:47:23.906Z,101533.14
2023-04-15T12:49:53.711Z,101535.91
2023-04-15T12:52:24.376Z,101547.75
2023-04-15T12:54:54.866Z,101542.81
2023-04-15T12:57:24.667Z,101543.50
2023-04-15T12:59:54.829Z,101539.27
2023-04-15T13:02:26.899Z,101555.00
2023-04-15T13:04:56.994Z,101553.75
2023-04-15T13:07:27.050Z,101560.16
2023-04-15T13:09:56.854Z,101564.45
2023-04-15T13:12:27.013Z,101562.09
2023-04-15T13:14:56.862Z,101569.73
2023-04-15T13:17:27.072Z,101575.78
2023-04-15T13:19:57.080Z,101575.86
2023-04-15T13:22:27.143Z,101584.77
2023-04-15T13:24:56.987Z,101578.98
2023-04-15T13:27:27.498Z,101577.91
2023-04-15T13:29:57.582Z,101578.53
2023-04-15T13:32:27.374Z,101578.53
2023-04-15T13:34:57.236Z,101587.11
2023-04-15T13:37:31.201Z,101582.38
2023-04-15T13:40:01.095Z,101594.81
2023-04-15T13:42:30.960Z,101594.91
2023-04-15T13:45:00.906Z,101594.91
2023-04-15T13:47:30.722Z,101592.00
2023-04-15T13:50:00.308Z,101592.00
2023-04-15T13:52:30.074Z,101608.33
2023-04-15T13:55:07.210Z,101610.44
2023-04-15T13:57:32.127Z,101613.88
2023-04-15T14:00:02.305Z,101620.02
2023-04-15T14:02:33.934Z,101632.67
2023-04-15T14:05:03.845Z,101639.52
2023-04-15T14:07:33.691Z,101640.30
2023-04-15T14:10:03.644Z,101653.02
2023-04-15T14:12:33.264Z,101653.02
2023-04-15T14:15:03.153Z,101647.69
2023-04-15T14:17:34.009Z,101659.81
2023-04-15T14:20:03.985Z,101663.64
2023-04-15T14:22:34.226Z,101663.43
2023-04-15T14:25:04.076Z,101663.43
2023-04-15T14:27:33.932Z,101667.92
2023-04-15T14:30:03.894Z,101667.59
2023-04-15T14:32:33.769Z,101674.31
2023-04-15T14:35:04.304Z,101676.69
2023-04-15T14:37:34.297Z,101675.33
2023-04-15T14:40:07.458Z,101685.34
2023-04-15T14:42:38.251Z,101693.59
2023-04-15T14:45:08.383Z,101685.53
2023-04-15T14:47:38.366Z,101688.11
2023-04-15T14:50:10.494Z,101698.75
2023-04-15T14:52:40.421Z,101698.75
2023-04-15T14:55:12.668Z,101708.72
2023-04-15T14:57:43.938Z,101712.85
2023-04-15T15:00:16.347Z,101724.70
2023-04-15T15:02:47.525Z,101723.62
2023-04-15T15:05:17.534Z,101738.37
2023-04-15T15:07:47.793Z,101742.86
2023-04-15T15:10:17.305Z,101745.55
2023-04-15T15:12:48.812Z,101745.65
2023-04-15T15:15:28.598Z,101753.82
2023-04-15T15:17:50.940Z,101747.69
2023-04-15T15:20:20.640Z,101747.84
2023-04-15T15:22:50.953Z,101758.39
2023-04-15T15:25:20.945Z,101761.41
2023-04-15T15:27:50.981Z,101762.70
2023-04-15T15:30:20.815Z,101769.87
2023-04-15T15:32:50.802Z,101766.89
2023-04-15T15:35:22.365Z,101766.89
2023-04-15T15:37:52.201Z,101766.52
2023-04-15T15:40:22.135Z,101766.02
2023-04-15T15:42:51.928Z,101765.11
2023-04-15T15:45:21.781Z,101777.41
2023-04-15T15:47:52.313Z,101783.21
2023-04-15T15:50:22.175Z,101783.21
2023-04-15T15:52:52.242Z,101784.62
2023-04-15T15:55:22.044Z,101786.71
2023-04-15T15:57:51.882Z,101777.02
2023-04-15T16:00:21.823Z,101792.70
2023-04-15T16:05:23.132Z,101802.81
2023-04-15T16:07:52.936Z,101805.45
2023-04-15T16:10:22.774Z,101806.73
2023-04-15T16:15:29.110Z,101819.56
2023-04-15T16:17:59.060Z,101823.86
2023-04-15T16:20:29.020Z,101827.77
2023-04-15T16:23:00.072Z,101827.72
2023-04-15T16:25:30.261Z,101837.36
2023-04-15T16:28:08.611Z,101837.58
2023-04-15T16:30:31.752Z,101832.86
2023-04-15T16:33:01.884Z,101845.09
2023-04-15T16:35:33.376Z,101845.09
2023-04-15T16:38:03.564Z,101848.58
2023-04-15T16:40:33.495Z,101861.27
2023-04-15T16:43:07.001Z,101858.94
2023-04-15T16:45:36.896Z,101871.02
2023-04-15T16:48:08.402Z,101876.06
2023-04-15T16:50:38.692Z,101870.48
2023-04-15T16:53:08.792Z,101872.31
2023-04-15T16:55:38.578Z,101874.47
2023-04-15T16:58:09.555Z,101876.31
2023-04-15T17:00:39.533Z,101881.48
2023-04-15T17:03:09.518Z,101883.76
2023-04-15T17:05:39.924Z,101880.56
2023-04-15T17:08:11.141Z,101886.44
2023-04-15T17:10:41.586Z,101888.02
2023-04-15T17:13:11.536Z,101898.08
2023-04-15T17:15:41.669Z,101897.11
2023-04-15T17:18:12.124Z,101899.59
2023-04-15T17:20:42.033Z,101900.87
2023-04-15T17:23:12.383Z,101904.20
2023-04-15T17:25:42.243Z,101902.27
2023-04-15T17:28:12.074Z,101904.97
2023-04-15T17:30:41.992Z,101909.77
2023-04-15T17:33:55.929Z,101909.16
2023-04-15T17:35:43.618Z,101906.77
2023-04-15T17:38:13.219Z,101916.27
2023-04-15T17:40:43.341Z,101916.48
2023-04-15T17:43:13.145Z,101920.27
2023-04-15T17:45:43.738Z,101928.93
2023-04-15T17:48:13.422Z,101930.76
2023-04-15T17:50:43.274Z,101930.76
2023-04-15T17:53:14.734Z,101933.55
2023-04-15T17:55:44.605Z,101932.45
2023-04-15T17:58:14.217Z,101942.95
2023-04-15T18:00:44.115Z,101944.50
2023-04-15T18:03:14.490Z,101946.67
2023-04-15T18:05:44.520Z,101943.39
2023-04-15T18:08:14.325Z,101953.57
2023-04-15T18:10:45.751Z,101953.63
2023-04-15T18:13:15.950Z,101956.74
2023-04-15T18:15:47.610Z,101960.78
2023-04-15T18:18:17.340Z,101969.55
2023-04-15T18:20:47.434Z,101970.88
2023-04-15T18:23:17.360Z,101975.31
2023-04-15T18:25:47.254Z,101978.95
2023-04-15T18:28:16.802Z,101980.98
2023-04-15T18:30:46.678Z,101984.41
2023-04-15T18:33:16.807Z,101996.73
2023-04-15T18:35:48.125Z,101996.73
2023-04-15T18:38:18.143Z,102000.84
2023-04-15T18:40:48.245Z,101993.73
2023-04-15T18:43:18.124Z,101996.65
2023-04-15T18:45:48.066Z,102010.33
2023-04-15T18:48:17.873Z,102009.83
2023-04-15T18:50:48.258Z,102018.30
2023-04-15T18:53:18.154Z,102016.37
2023-04-15T18:55:48.005Z,102026.76
2023-04-15T18:58:17.987Z,102025.08
2023-04-15T19:00:47.883Z,102034.44
2023-04-15T19:03:17.877Z,102024.05
2023-04-15T19:05:48.190Z,102029.52
2023-04-15T19:08:17.769Z,102035.97
2023-04-15T19:10:47.611Z,102039.72
2023-04-15T19:13:18.866Z,102037.34
2023-04-15T19:15:48.716Z,102035.62
2023-04-15T19:18:18.223Z,102040.39
2023-04-15T19:20:49.755Z,102044.50
2023-04-15T19:23:19.755Z,102049.61
2023-04-15T19:25:49.634Z,102060.49
2023-04-15T19:28:19.177Z,102060.49
2023-04-15T19:30:49.327Z,102060.19
2023-04-15T19:33:19.176Z,102064.08
2023-04-15T19:35:49.938Z,102069.72
2023-04-15T19:38:19.850Z,102069.19
2023-04-15T19:40:50.577Z,102077.52
2023-04-15T19:43:20.449Z,102074.64
2023-04-15T19:45:52.193Z,102079.75
2023-04-15T19:48:23.832Z,102082.30
2023-04-15T19:50:54.115Z,102088.26
2023-04-15T19:53:25.578Z,102080.95
2023-04-15T19:55:55.465Z,102085.72
2023-04-15T19:58:25.277Z,102085.02
2023-04-15T20:00:55.089Z,102085.33
2023-04-15T20:03:25.199Z,102086.39
2023-04-15T20:05:55.135Z,102083.66
2023-04-15T20:08:24.621Z,102080.26
2023-04-15T20:10:54.601Z,102076.53
2023-04-15T20:13:24.695Z,102080.27
2023-04-15T20:15:54.571Z,102079.58
2023-04-15T20:18:24.419Z,102092.34
2023-04-15T20:20:54.246Z,102092.34
2023-04-15T20:23:24.049Z,102088.27
2023-04-15T20:25:53.933Z,102093.72
2023-04-15T20:28:25.093Z,102092.38
2023-04-15T20:30:55.345Z,102094.75
2023-04-15T20:33:27.196Z,102094.73
2023-04-15T20:35:57.075Z,102094.73
2023-04-15T20:38:26.710Z,102097.45
2023-04-15T20:40:57.821Z,102097.64
2023-04-15T20:43:27.644Z,102098.66
2023-04-15T20:46:00.204Z,102105.67
2023-04-15T20:48:28.928Z,102103.61
2023-04-15T20:50:59.047Z,102099.00
2023-04-15T20:53:28.847Z,102110.91
2023-04-15T20:56:00.242Z,102090.62
2023-04-15T20:58:30.054Z,102090.62
2023-04-15T21:01:01.956Z,102101.73
2023-04-15T21:03:32.283Z,102103.27
2023-04-15T21:06:02.285Z,102107.83
2023-04-15T21:08:32.244Z,102110.03
2023-04-15T21:11:02.381Z,102110.08
2023-04-15T21:13:32.254Z,102111.27
2023-04-15T21:16:02.129Z,102112.28
2023-04-15T21:18:31.984Z,102108.88
2023-04-15T21:21:03.222Z,102104.78
2023-04-15T21:23:34.718Z,102104.80
2023-04-15T21:26:06.555Z,102100.02
2023-04-15T21:28:37.121Z,102110.41
2023-04-15T21:31:07.194Z,102111.24
2023-04-15T21:33:37.262Z,102122.81
2023-04-15T21:36:08.238Z,102123.52
2023-04-15T21:38:38.070Z,102121.47
2023-04-15T21:41:09.711Z,102124.73
2023-04-15T21:43:39.740Z,102127.08
2023-04-15T21:46:22.539Z,102130.19
2023-04-15T21:48:42.993Z,102131.02
2023-04-15T21:51:12.955Z,102128.45
2023-04-15T21:53:42.781Z,102134.09
2023-04-15T21:56:12.596Z,102136.28
2023-04-15T21:58:42.906Z,102137.28
2023-04-15T22:01:12.711Z,102138.69
2023-04-15T22:03:43.983Z,102139.53
2023-04-15T22:06:13.794Z,102143.80
2023-04-15T22:08:55.214Z,102148.38
2023-04-15T22:11:30.367Z,102147.93
2023-04-15T22:14:00.692Z,102150.12
2023-04-15T22:16:30.254Z,102148.20
2023-04-15T22:19:00.274Z,102157.05
2023-04-15T22:21:30.058Z,102157.05
2023-04-15T22:24:38.261Z,102161.16
2023-04-15T22:26:31.314Z,102160.48
2023-04-15T22:29:01.108Z,102153.70
2023-04-15T22:31:31.150Z,102162.37
2023-04-15T22:34:01.132Z,102154.86
2023-04-15T22:36:31.812Z,102161.37
2023-04-15T22:39:01.752Z,102167.48
2023-04-15T22:41:31.534Z,102170.53
2023-04-15T22:44:01.130Z,102168.11
2023-04-15T22:46:31.198Z,102167.09
2023-04-15T22:49:01.291Z,102173.75
2023-04-15T22:51:31.437Z,102173.09
2023-04-15T22:54:01.879Z,102182.63
2023-04-15T22:56:31.703Z,102180.76
2023-04-15T22:59:01.519Z,102183.33
2023-04-15T23:01:32.173Z,102178.45
2023-04-15T23:04:08.152Z,102186.45
2023-04-15T23:06:33.676Z,102184.23
2023-04-15T23:09:03.497Z,102188.12
2023-04-15T23:11:33.364Z,102185.92
2023-04-15T23:14:03.260Z,102191.05
2023-04-15T23:16:33.131Z,102191.05
2023-04-15T23:19:02.937Z,102188.28
2023-04-15T23:21:33.031Z,102192.04
2023-04-15T23:24:02.941Z,102198.00
2023-04-15T23:26:32.887Z,102193.78
2023-04-15T23:29:02.704Z,102203.60
2023-04-15T23:31:32.202Z,102201.91
2023-04-15T23:34:02.313Z,102194.95
2023-04-15T23:36:32.212Z,102196.67
2023-04-15T23:39:02.200Z,102199.87
2023-04-15T23:41:31.930Z,102204.63
2023-04-15T23:44:01.893Z,102203.31
2023-04-15T23:46:31.728Z,102212.48
2023-04-15T23:49:01.616Z,102209.34
2023-04-15T23:51:31.481Z,102212.81
2023-04-15T23:54:01.326Z,102207.94
2023-04-15T23:56:31.697Z,102203.16
2023-04-15T23:59:01.235Z,102215.27
